Time;durP1;ratioP1;P1;durP2;ratioP2;P2;SDS_P1;SDS_P2;PMS_P1;PMS_P2;Temp;Humidity;BMP_temperature;BMP_pressure;BME280_temperature;BME280_humidity;BME280_pressure;Samples;Min_cycle;Max_cycle;Signal;HPM_P1;HPM_P2
2021/12/28 00:01:25;;;;;;;;;;;22.20;45.00;;;;;;5116135;28;19928;-55
2021/12/28 00:03:52;;;;;;;;;;;22.20;45.00;;;;;;5115253;27;20272;-54
2021/12/28 00:06:20;;;;;;;;;;;22.20;45.00;;;;;;5116016;28;19923;-53
2021/12/28 00:08:48;;;;;;;;;;;22.20;45.00;;;;;;5115994;28;19924;-57
2021/12/28 00:11:15;;;;;;;;;;;22.20;45.00;;;;;;5116258;28;19924;-50
2021/12/28 00:13:43;;;;;;;;;;;22.20;45.00;;;;;;5116168;28;19923;-56
2021/12/28 00:18:44;;;;;;;;;;;22.20;45.00;;;;;;5114609;27;19927;-54
2021/12/28 00:21:11;;;;;;;;;;;22.20;45.10;;;;;;5115742;28;20452;-58
2021/12/28 00:23:41;;;;;;;;;;;22.20;45.10;;;;;;5115338;28;19928;-55
2021/12/28 00:26:10;;;;;;;;;;;22.20;45.10;;;;;;5115870;28;19993;-56
2021/12/28 00:28:44;;;;;;;;;;;22.20;45.10;;;;;;5115622;28;20040;-49
2021/12/28 00:31:13;;;;;;;;;;;22.20;45.00;;;;;;5115549;28;19932;-50
2021/12/28 00:33:41;;;;;;;;;;;22.20;45.00;;;;;;5114552;28;19924;-54
2021/12/28 00:36:08;;;;;;;;;;;22.20;45.00;;;;;;5115741;28;19931;-53
2021/12/28 00:38:35;;;;;;;;;;;22.20;45.00;;;;;;5115709;28;19924;-49
2021/12/28 00:41:04;;;;;;;;;;;22.20;45.00;;;;;;5115310;28;19924;-55
2021/12/28 00:43:31;;;;;;;;;;;22.20;45.00;;;;;;5115498;28;19930;-51
2021/12/28 00:45:59;;;;;;;;;;;22.20;45.00;;;;;;5115551;28;19924;-53
2021/12/28 00:48:26;;;;;;;;;;;22.20;45.10;;;;;;5114396;27;19946;-53
2021/12/28 00:50:53;;;;;;;;;;;22.20;45.10;;;;;;5115153;28;19924;-57
2021/12/28 00:53:21;;;;;;;;;;;22.20;45.00;;;;;;5114920;28;19924;-50
2021/12/28 00:55:48;;;;;;;;;;;22.20;45.00;;;;;;5115239;28;19923;-49
2021/12/28 00:58:16;;;;;;;;;;;22.20;45.00;;;;;;5097023;28;19924;-58
2021/12/28 01:00:44;;;;;;;;;;;22.20;45.00;;;;;;5115299;28;20307;-51
2021/12/28 01:03:12;;;;;;;;;;;22.20;45.00;;;;;;5113442;28;20011;-52
2021/12/28 01:05:40;;;;;;;;;;;22.20;45.00;;;;;;5115115;28;19930;-48
2021/12/28 01:08:07;;;;;;;;;;;22.20;45.00;;;;;;5114847;28;19924;-56
2021/12/28 01:10:43;;;;;;;;;;;22.20;45.00;;;;;;5096775;28;19945;-57
2021/12/28 01:13:11;;;;;;;;;;;22.20;45.00;;;;;;5115100;28;20379;-52
2021/12/28 01:15:38;;;;;;;;;;;22.20;45.00;;;;;;5114690;28;19923;-49
2021/12/28 01:18:06;;;;;;;;;;;22.20;45.00;;;;;;5113377;28;19928;-56
2021/12/28 01:20:33;;;;;;;;;;;22.20;45.00;;;;;;5114611;28;19924;-50
2021/12/28 01:23:00;;;;;;;;;;;22.20;45.00;;;;;;5114208;28;19923;-53
2021/12/28 01:25:28;;;;;;;;;;;22.20;45.00;;;;;;5114346;28;19923;-52
2021/12/28 01:27:55;;;;;;;;;;;22.20;45.00;;;;;;5114494;28;19928;-53
2021/12/28 01:30:23;;;;;;;;;;;22.20;45.00;;;;;;5114781;28;19976;-54
2021/12/28 01:32:50;;;;;;;;;;;22.20;45.00;;;;;;5114709;28;19946;-50
2021/12/28 01:35:19;;;;;;;;;;;22.20;45.00;;;;;;5113764;28;19925;-49
2021/12/28 01:37:47;;;;;;;;;;;22.20;45.00;;;;;;5096403;28;19938;-53
2021/12/28 01:40:15;;;;;;;;;;;22.20;45.00;;;;;;5114639;28;19923;-53
2021/12/28 01:42:58;;;;;;;;;;;22.20;45.10;;;;;;5114599;28;19930;-55
2021/12/28 01:45:31;;;;;;;;;;;22.20;45.10;;;;;;5114474;28;19931;-58
2021/12/28 01:47:58;;;;;;;;;;;22.10;44.90;;;;;;5114487;28;19924;-49
2021/12/28 01:50:25;;;;;;;;;;;22.10;45.00;;;;;;5095087;28;19924;-56
2021/12/28 01:52:53;;;;;;;;;;;22.10;44.90;;;;;;5114011;28;20006;-58
2021/12/28 01:55:20;;;;;;;;;;;22.10;45.00;;;;;;5114047;28;19924;-49
2021/12/28 01:57:47;;;;;;;;;;;22.10;44.90;;;;;;5114114;28;19931;-47
2021/12/28 02:00:15;;;;;;;;;;;22.10;44.90;;;;;;5114407;28;19950;-55
2021/12/28 02:02:42;;;;;;;;;;;22.10;44.90;;;;;;5114386;28;20303;-58
2021/12/28 02:05:10;;;;;;;;;;;22.10;44.90;;;;;;5112842;28;19924;-58
2021/12/28 02:07:37;;;;;;;;;;;22.10;44.90;;;;;;5096043;28;20386;-56
2021/12/28 02:10:04;;;;;;;;;;;22.10;45.00;;;;;;5114374;28;19927;-53
2021/12/28 02:12:31;;;;;;;;;;;22.10;45.00;;;;;;5113975;28;19930;-57
2021/12/28 02:15:05;;;;;;;;;;;22.10;44.90;;;;;;5117007;28;19930;-57
2021/12/28 02:17:33;;;;;;;;;;;22.10;45.00;;;;;;5118509;28;19924;-58
2021/12/28 02:20:27;;;;;;;;;;;22.10;45.00;;;;;;5116991;27;19930;-48
2021/12/28 02:22:54;;;;;;;;;;;22.10;44.90;;;;;;5113574;28;19927;-57
2021/12/28 02:25:22;;;;;;;;;;;22.10;45.00;;;;;;5117830;28;19931;-54
2021/12/28 02:27:49;;;;;;;;;;;22.10;44.90;;;;;;5117935;28;19924;-54
2021/12/28 02:30:17;;;;;;;;;;;22.10;45.00;;;;;;5117920;28;19935;-58
2021/12/28 02:32:45;;;;;;;;;;;22.10;45.00;;;;;;5118160;28;19923;-58
2021/12/28 02:35:17;;;;;;;;;;;22.10;45.00;;;;;;5116690;27;19924;-58
2021/12/28 02:37:45;;;;;;;;;;;22.10;45.00;;;;;;5117757;28;19923;-55
2021/12/28 02:40:13;;;;;;;;;;;22.10;45.00;;;;;;5117742;28;19924;-56
2021/12/28 02:42:41;;;;;;;;;;;22.10;45.00;;;;;;5117672;28;20093;-56
2021/12/28 02:45:10;;;;;;;;;;;22.10;44.90;;;;;;5117823;28;19931;-57
2021/12/28 02:47:38;;;;;;;;;;;22.10;45.00;;;;;;5117567;28;19953;-51
2021/12/28 02:50:06;;;;;;;;;;;22.10;44.90;;;;;;5116499;27;19927;-49
2021/12/28 02:52:36;;;;;;;;;;;22.10;44.90;;;;;;5117304;28;19966;-52
2021/12/28 02:55:11;;;;;;;;;;;22.10;44.90;;;;;;5117902;28;19924;-51
2021/12/28 02:57:46;;;;;;;;;;;22.10;45.00;;;;;;5117411;28;20015;-58
2021/12/28 03:00:13;;;;;;;;;;;22.10;45.00;;;;;;5117306;28;20405;-57
2021/12/28 03:02:40;;;;;;;;;;;22.10;45.00;;;;;;5117300;28;20022;-52
2021/12/28 03:05:08;;;;;;;;;;;22.10;45.00;;;;;;5098279;28;19923;-57
2021/12/28 03:07:35;;;;;;;;;;;22.10;45.00;;;;;;5117488;28;19950;-50
2021/12/28 03:10:02;;;;;;;;;;;22.10;45.00;;;;;;5117473;28;20287;-53
2021/12/28 03:12:29;;;;;;;;;;;22.10;45.00;;;;;;5117408;28;19978;-51
2021/12/28 03:14:56;;;;;;;;;;;22.00;44.80;;;;;;5117030;28;19938;-50
2021/12/28 03:17:25;;;;;;;;;;;22.00;44.80;;;;;;5099580;28;19927;-52
2021/12/28 03:19:53;;;;;;;;;;;22.00;44.90;;;;;;5115809;27;19924;-47
2021/12/28 03:22:20;;;;;;;;;;;22.00;44.90;;;;;;5116789;28;19924;-56
2021/12/28 03:24:47;;;;;;;;;;;22.00;44.90;;;;;;5116618;28;19923;-57
2021/12/28 03:27:14;;;;;;;;;;;22.00;44.90;;;;;;5117117;28;20018;-55
2021/12/28 03:29:41;;;;;;;;;;;22.00;44.90;;;;;;5098728;28;19924;-57
2021/12/28 03:32:08;;;;;;;;;;;22.00;44.90;;;;;;5116727;28;19930;-54
2021/12/28 03:34:35;;;;;;;;;;;22.00;44.90;;;;;;5115500;27;19931;-58
2021/12/28 03:37:02;;;;;;;;;;;22.00;44.90;;;;;;5116615;28;19924;-55
2021/12/28 03:39:30;;;;;;;;;;;22.00;44.90;;;;;;5116558;28;19924;-53
2021/12/28 03:41:57;;;;;;;;;;;22.00;44.90;;;;;;5116810;28;19946;-55
2021/12/28 03:44:24;;;;;;;;;;;22.00;44.90;;;;;;5116409;28;19931;-56
2021/12/28 03:46:51;;;;;;;;;;;22.00;44.90;;;;;;5116741;28;19924;-57
2021/12/28 03:49:18;;;;;;;;;;;22.00;44.90;;;;;;5116217;28;20260;-53
2021/12/28 03:51:45;;;;;;;;;;;22.00;44.90;;;;;;5115940;28;19923;-57
2021/12/28 03:54:12;;;;;;;;;;;22.00;44.90;;;;;;5097986;28;19930;-56
2021/12/28 03:56:40;;;;;;;;;;;22.00;44.90;;;;;;5116544;28;19930;-54
2021/12/28 03:59:07;;;;;;;;;;;22.00;44.90;;;;;;5116164;28;19930;-56
2021/12/28 04:01:34;;;;;;;;;;;22.00;44.90;;;;;;5117032;28;19923;-58
2021/12/28 04:04:02;;;;;;;;;;;22.00;44.90;;;;;;5116411;28;19924;-53
2021/12/28 04:06:30;;;;;;;;;;;22.00;44.90;;;;;;5114638;27;19923;-48
2021/12/28 04:08:59;;;;;;;;;;;22.00;44.90;;;;;;5116011;28;20018;-53
2021/12/28 04:11:27;;;;;;;;;;;22.00;44.90;;;;;;5116295;28;19927;-58
2021/12/28 04:14:01;;;;;;;;;;;22.00;44.90;;;;;;5115918;28;20347;-52
2021/12/28 04:16:29;;;;;;;;;;;22.00;44.90;;;;;;5116175;28;19946;-49
2021/12/28 04:18:56;;;;;;;;;;;22.00;44.90;;;;;;5115894;28;19928;-57
2021/12/28 04:21:24;;;;;;;;;;;22.00;44.90;;;;;;5114486;28;19938;-53
2021/12/28 04:23:51;;;;;;;;;;;22.00;44.90;;;;;;5115271;28;19923;-50
2021/12/28 04:26:23;;;;;;;;;;;22.00;44.90;;;;;;5115642;28;19924;-57
2021/12/28 04:28:50;;;;;;;;;;;22.00;44.90;;;;;;5116462;28;19924;-56
2021/12/28 04:31:17;;;;;;;;;;;22.00;44.80;;;;;;5115569;28;19923;-57
2021/12/28 04:33:44;;;;;;;;;;;22.00;44.80;;;;;;5115847;28;20400;-49
2021/12/28 04:36:12;;;;;;;;;;;22.00;44.90;;;;;;5114231;28;19924;-49
2021/12/28 04:38:41;;;;;;;;;;;22.00;44.90;;;;;;5114880;28;19930;-52
2021/12/28 04:41:09;;;;;;;;;;;22.00;44.90;;;;;;5115665;28;19931;-46
2021/12/28 04:43:37;;;;;;;;;;;22.00;44.90;;;;;;5115312;28;19931;-53
2021/12/28 04:46:05;;;;;;;;;;;21.90;44.80;;;;;;5115207;28;19932;-50
2021/12/28 04:48:33;;;;;;;;;;;21.90;44.80;;;;;;5115512;28;19923;-47
2021/12/28 04:51:01;;;;;;;;;;;21.90;44.80;;;;;;5114247;27;19931;-53
2021/12/28 04:53:28;;;;;;;;;;;21.90;44.80;;;;;;5115269;28;19930;-57
2021/12/28 04:55:55;;;;;;;;;;;21.90;44.80;;;;;;5114950;28;19924;-51
2021/12/28 04:58:23;;;;;;;;;;;21.90;44.80;;;;;;5098031;28;19930;-54
2021/12/28 05:00:51;;;;;;;;;;;21.90;44.80;;;;;;5115313;28;19930;-54
2021/12/28 05:03:20;;;;;;;;;;;21.90;44.90;;;;;;5097041;28;20406;-53
2021/12/28 05:05:50;;;;;;;;;;;21.90;44.80;;;;;;5096008;28;19927;-51
2021/12/28 05:08:19;;;;;;;;;;;21.90;44.80;;;;;;5115497;28;20344;-51
2021/12/28 05:10:46;;;;;;;;;;;21.90;44.80;;;;;;5114814;28;19935;-57
2021/12/28 05:13:13;;;;;;;;;;;21.90;44.80;;;;;;5114773;28;19930;-52
2021/12/28 05:15:43;;;;;;;;;;;21.90;45.40;;;;;;5114735;28;20383;-53
2021/12/28 05:18:11;;;;;;;;;;;21.90;44.80;;;;;;5114964;28;19923;-55
2021/12/28 05:20:38;;;;;;;;;;;21.90;44.90;;;;;;5114074;27;19931;-56
2021/12/28 05:23:06;;;;;;;;;;;21.90;44.80;;;;;;5114238;28;19924;-54
2021/12/28 05:25:33;;;;;;;;;;;21.90;44.80;;;;;;5114368;28;19924;-57
2021/12/28 05:28:01;;;;;;;;;;;21.90;44.80;;;;;;5114500;28;19930;-52
2021/12/28 05:30:28;;;;;;;;;;;21.90;44.80;;;;;;5114766;28;19924;-56
2021/12/28 05:32:56;;;;;;;;;;;21.90;44.90;;;;;;5114749;28;20295;-54
2021/12/28 05:35:23;;;;;;;;;;;21.90;44.90;;;;;;5114379;28;19923;-51
2021/12/28 05:37:51;;;;;;;;;;;21.90;44.90;;;;;;5113575;28;20413;-51
2021/12/28 05:40:18;;;;;;;;;;;21.90;44.90;;;;;;5114362;28;19924;-53
2021/12/28 05:42:45;;;;;;;;;;;21.90;44.90;;;;;;5114643;28;19923;-57
2021/12/28 05:45:12;;;;;;;;;;;21.90;44.90;;;;;;5114849;28;20275;-55
2021/12/28 05:47:40;;;;;;;;;;;21.80;44.80;;;;;;5114197;28;20006;-53
2021/12/28 05:50:08;;;;;;;;;;;21.80;44.80;;;;;;5096152;28;19931;-58
2021/12/28 05:52:35;;;;;;;;;;;21.80;44.80;;;;;;5112796;28;19924;-55
2021/12/28 05:55:03;;;;;;;;;;;21.80;44.80;;;;;;5114060;28;19924;-53
2021/12/28 05:57:30;;;;;;;;;;;21.80;44.80;;;;;;5114471;28;19924;-51
2021/12/28 05:59:57;;;;;;;;;;;21.80;44.80;;;;;;5114473;28;19924;-52
2021/12/28 06:02:25;;;;;;;;;;;21.80;44.80;;;;;;5114413;28;19930;-49
2021/12/28 06:04:52;;;;;;;;;;;21.80;44.80;;;;;;5096441;28;19924;-52
2021/12/28 06:07:19;;;;;;;;;;;21.80;44.80;;;;;;5112960;28;19924;-52
2021/12/28 06:09:46;;;;;;;;;;;21.80;44.80;;;;;;5114343;28;19924;-52
2021/12/28 06:12:13;;;;;;;;;;;21.80;44.90;;;;;;5114356;28;19931;-48
2021/12/28 06:14:40;;;;;;;;;;;21.80;44.80;;;;;;5114305;28;19923;-53
2021/12/28 06:17:07;;;;;;;;;;;21.80;44.80;;;;;;5095876;28;19928;-50
2021/12/28 06:19:34;;;;;;;;;;;21.80;44.90;;;;;;5113947;28;20379;-50
2021/12/28 06:22:01;;;;;;;;;;;21.80;44.90;;;;;;5112658;28;19924;-55
2021/12/28 06:24:28;;;;;;;;;;;21.80;44.80;;;;;;5114153;28;19923;-48
2021/12/28 06:26:55;;;;;;;;;;;21.80;44.90;;;;;;5114115;28;19927;-49
2021/12/28 06:29:22;;;;;;;;;;;21.80;44.90;;;;;;5113827;28;19931;-51
2021/12/28 06:31:49;;;;;;;;;;;21.80;44.90;;;;;;5113848;28;19974;-47
2021/12/28 06:34:17;;;;;;;;;;;21.80;44.90;;;;;;5114097;28;19928;-52
2021/12/28 06:36:44;;;;;;;;;;;21.80;44.90;;;;;;5113001;28;19930;-46
2021/12/28 06:39:11;;;;;;;;;;;21.80;44.90;;;;;;5113781;28;19930;-50
2021/12/28 06:41:38;;;;;;;;;;;21.80;44.90;;;;;;5113756;28;19923;-55
2021/12/28 06:44:09;;;;;;;;;;;21.80;44.90;;;;;;5114030;28;19930;-56
2021/12/28 06:46:37;;;;;;;;;;;21.80;45.00;;;;;;5113992;28;20369;-53
2021/12/28 06:49:05;;;;;;;;;;;21.80;44.90;;;;;;5113640;28;20022;-53
2021/12/28 06:51:32;;;;;;;;;;;21.80;44.90;;;;;;5112312;28;19939;-57
2021/12/28 06:53:59;;;;;;;;;;;21.80;44.90;;;;;;5113332;28;19931;-52
2021/12/28 06:56:26;;;;;;;;;;;21.80;44.90;;;;;;5113467;28;19931;-56
2021/12/28 06:58:53;;;;;;;;;;;21.80;44.90;;;;;;5113599;28;20379;-54
2021/12/28 07:01:20;;;;;;;;;;;21.80;45.50;;;;;;5116398;28;19924;-53
2021/12/28 07:03:48;;;;;;;;;;;21.80;44.90;;;;;;5117289;28;19923;-58
2021/12/28 07:06:16;;;;;;;;;;;21.80;44.90;;;;;;5117113;28;19931;-50
2021/12/28 07:08:43;;;;;;;;;;;21.80;44.90;;;;;;5115957;27;19923;-53
2021/12/28 07:11:11;;;;;;;;;;;21.80;44.90;;;;;;5099075;28;19930;-57
2021/12/28 07:13:38;;;;;;;;;;;21.80;44.90;;;;;;5117370;28;19931;-55
2021/12/28 07:16:05;;;;;;;;;;;21.80;45.00;;;;;;5117372;28;19923;-55
2021/12/28 07:18:32;;;;;;;;;;;21.80;45.00;;;;;;5117311;28;19924;-58
2021/12/28 07:21:02;;;;;;;;;;;21.80;44.90;;;;;;5117045;28;20019;-53
2021/12/28 07:23:31;;;;;;;;;;;21.80;44.90;;;;;;5115404;27;19970;-58
2021/12/28 07:25:58;;;;;;;;;;;21.80;44.90;;;;;;5116684;28;19925;-57
2021/12/28 07:28:25;;;;;;;;;;;21.80;44.90;;;;;;5116839;28;19930;-57
2021/12/28 07:30:53;;;;;;;;;;;21.80;44.80;;;;;;5117604;28;19923;-57
2021/12/28 07:33:21;;;;;;;;;;;21.80;44.90;;;;;;5116738;28;19930;-57
2021/12/28 07:35:48;;;;;;;;;;;21.80;44.80;;;;;;5098615;28;19931;-51
2021/12/28 07:38:16;;;;;;;;;;;21.80;44.80;;;;;;5115894;27;19924;-53
2021/12/28 07:40:43;;;;;;;;;;;21.80;44.80;;;;;;5116887;28;19923;-52
2021/12/28 07:43:10;;;;;;;;;;;21.80;44.80;;;;;;5116558;28;19924;-55
2021/12/28 07:45:37;;;;;;;;;;;21.80;44.80;;;;;;5116745;28;20041;-52
2021/12/28 07:48:04;;;;;;;;;;;21.80;44.80;;;;;;5116267;28;19928;-52
2021/12/28 07:50:32;;;;;;;;;;;21.80;44.80;;;;;;5116683;28;19931;-53
2021/12/28 07:52:59;;;;;;;;;;;21.80;44.80;;;;;;5114945;27;19923;-56
2021/12/28 07:55:26;;;;;;;;;;;21.80;44.70;;;;;;5098506;28;19931;-55
2021/12/28 07:57:53;;;;;;;;;;;21.80;44.70;;;;;;5116237;28;19924;-50
2021/12/28 08:00:20;;;;;;;;;;;21.80;44.70;;;;;;5116168;28;19930;-50
2021/12/28 08:02:47;;;;;;;;;;;21.80;44.70;;;;;;5116456;28;19991;-52
2021/12/28 08:05:15;;;;;;;;;;;21.80;44.70;;;;;;5116421;28;19973;-56
2021/12/28 08:07:42;;;;;;;;;;;21.80;44.70;;;;;;5114845;28;19971;-48
2021/12/28 08:10:12;;;;;;;;;;;21.80;44.70;;;;;;5116155;28;19923;-53
2021/12/28 08:12:40;;;;;;;;;;;21.80;44.60;;;;;;5115367;28;19927;-51
2021/12/28 08:15:07;;;;;;;;;;;21.80;44.70;;;;;;5116250;28;19951;-56
2021/12/28 08:17:36;;;;;;;;;;;21.80;44.60;;;;;;5116168;28;19966;-56
2021/12/28 08:20:05;;;;;;;;;;;21.80;44.60;;;;;;5115805;28;19924;-48
2021/12/28 08:22:32;;;;;;;;;;;21.80;44.60;;;;;;5114245;27;19971;-56
2021/12/28 08:24:59;;;;;;;;;;;21.80;44.50;;;;;;5115604;28;19931;-54
2021/12/28 08:27:27;;;;;;;;;;;21.80;44.50;;;;;;5115828;28;20034;-55
2021/12/28 08:29:54;;;;;;;;;;;21.80;44.50;;;;;;5115582;28;19930;-58
2021/12/28 08:32:21;;;;;;;;;;;21.80;44.50;;;;;;5115533;28;19931;-51
2021/12/28 08:34:49;;;;;;;;;;;21.80;44.50;;;;;;5115814;28;19924;-58
2021/12/28 08:37:17;;;;;;;;;;;21.80;44.50;;;;;;5115753;28;19928;-55
2021/12/28 08:39:44;;;;;;;;;;;21.90;44.60;;;;;;5114246;28;19924;-56
2021/12/28 08:42:11;;;;;;;;;;;21.90;44.50;;;;;;5115385;28;19927;-57
2021/12/28 08:44:38;;;;;;;;;;;21.90;44.50;;;;;;5115327;28;19966;-56
2021/12/28 08:47:07;;;;;;;;;;;21.90;44.50;;;;;;5115165;28;19923;-52
2021/12/28 08:49:34;;;;;;;;;;;21.90;44.50;;;;;;5115488;28;19923;-58
2021/12/28 08:52:02;;;;;;;;;;;21.90;44.50;;;;;;5115318;28;19931;-56
2021/12/28 08:54:29;;;;;;;;;;;21.90;44.50;;;;;;5113684;28;20430;-58
2021/12/28 08:56:56;;;;;;;;;;;21.90;44.40;;;;;;5115093;28;19924;-57
2021/12/28 08:59:23;;;;;;;;;;;21.90;44.40;;;;;;5114992;28;19928;-55
2021/12/28 09:01:50;;;;;;;;;;;21.90;44.40;;;;;;5115302;28;19931;-50
2021/12/28 09:04:18;;;;;;;;;;;22.00;44.40;;;;;;5114948;28;20018;-57
2021/12/28 09:06:45;;;;;;;;;;;22.00;44.40;;;;;;5115071;28;19924;-53
2021/12/28 09:09:13;;;;;;;;;;;22.00;44.30;;;;;;5113701;28;19930;-55
2021/12/28 09:11:41;;;;;;;;;;;22.00;44.30;;;;;;5115120;28;19982;-58
2021/12/28 09:14:09;;;;;;;;;;;22.00;44.30;;;;;;5114728;28;19939;-49
2021/12/28 09:16:37;;;;;;;;;;;22.00;44.30;;;;;;5115016;28;19949;-57
2021/12/28 09:19:04;;;;;;;;;;;22.00;44.20;;;;;;5114665;28;20070;-54
2021/12/28 09:21:31;;;;;;;;;;;22.00;44.20;;;;;;5114617;28;19930;-55
2021/12/28 09:23:58;;;;;;;;;;;22.00;44.20;;;;;;5112764;28;19946;-53
2021/12/28 09:26:46;;;;;;;;;;;22.00;44.20;;;;;;5114707;28;19924;-50
2021/12/28 09:29:13;;;;;;;;;;;22.10;44.20;;;;;;5114469;28;19924;-51
2021/12/28 09:31:41;;;;;;;;;;;22.00;44.10;;;;;;5114378;28;19928;-51
2021/12/28 09:34:08;;;;;;;;;;;22.10;44.20;;;;;;5096358;28;20379;-56
2021/12/28 09:36:55;;;;;;;;;;;22.10;44.10;;;;;;5114480;28;19971;-55
2021/12/28 09:39:24;;;;;;;;;;;22.10;44.10;;;;;;5113502;27;19924;-56
2021/12/28 09:41:52;;;;;;;;;;;22.10;44.00;;;;;;5114669;28;20286;-55
2021/12/28 09:44:20;;;;;;;;;;;22.10;44.00;;;;;;5114351;28;19924;-57
2021/12/28 09:46:48;;;;;;;;;;;22.10;43.90;;;;;;5114196;28;19974;-47
2021/12/28 09:49:15;;;;;;;;;;;22.20;44.00;;;;;;5114258;28;19973;-53
2021/12/28 09:51:43;;;;;;;;;;;22.20;44.00;;;;;;5114233;28;19930;-50
2021/12/28 09:54:11;;;;;;;;;;;22.20;44.00;;;;;;5112928;28;19970;-55
2021/12/28 09:56:38;;;;;;;;;;;22.20;44.00;;;;;;5114518;28;19926;-56
2021/12/28 09:59:05;;;;;;;;;;;22.20;44.00;;;;;;5114460;28;20344;-49
2021/12/28 10:01:32;;;;;;;;;;;22.20;44.00;;;;;;5114151;28;19924;-57
2021/12/28 10:04:01;;;;;;;;;;;22.20;43.90;;;;;;5114114;28;19931;-53
2021/12/28 10:06:29;;;;;;;;;;;22.20;43.90;;;;;;5113991;28;19923;-52
2021/12/28 10:09:07;;;;;;;;;;;22.20;43.90;;;;;;5112818;28;19930;-53
2021/12/28 10:11:54;;;;;;;;;;;22.20;43.90;;;;;;5114028;28;19924;-52
2021/12/28 10:14:23;;;;;;;;;;;22.20;43.90;;;;;;5113998;28;19924;-51
2021/12/28 10:16:55;;;;;;;;;;;22.20;43.80;;;;;;5113964;28;19924;-57
2021/12/28 10:19:42;;;;;;;;;;;22.20;43.80;;;;;;5114284;28;19955;-47
2021/12/28 10:22:24;;;;;;;;;;;22.20;43.80;;;;;;5113849;28;19923;-51
2021/12/28 10:24:52;;;;;;;;;;;22.30;43.90;;;;;;5112581;28;19924;-52
2021/12/28 10:27:22;;;;;;;;;;;22.20;43.80;;;;;;5113777;28;19930;-55
2021/12/28 10:29:49;;;;;;;;;;;22.30;43.80;;;;;;5114157;28;19967;-53
2021/12/28 10:32:19;;;;;;;;;;;22.30;43.80;;;;;;5113858;28;20011;-56
2021/12/28 10:34:50;;;;;;;;;;;22.30;43.80;;;;;;5114116;28;19923;-55
2021/12/28 10:37:18;;;;;;;;;;;22.30;43.80;;;;;;5118127;28;19927;-55
2021/12/28 10:39:47;;;;;;;;;;;22.30;43.80;;;;;;5098633;28;19930;-55
2021/12/28 10:42:32;;;;;;;;;;;22.30;43.80;;;;;;5117731;28;19924;-53
2021/12/28 10:45:00;;;;;;;;;;;22.30;43.80;;;;;;5117720;28;20375;-56
2021/12/28 10:47:32;;;;;;;;;;;22.30;43.80;;;;;;5117954;28;20341;-48
2021/12/28 10:50:07;;;;;;;;;;;22.30;43.80;;;;;;5117569;28;19923;-52
2021/12/28 10:52:39;;;;;;;;;;;22.30;43.80;;;;;;5117407;28;19924;-50
2021/12/28 10:55:23;;;;;;;;;;;22.30;43.80;;;;;;5115954;27;19923;-50
2021/12/28 10:57:51;;;;;;;;;;;22.30;43.80;;;;;;5117416;28;19923;-52
2021/12/28 11:00:25;;;;;;;;;;;22.30;43.80;;;;;;5117399;28;19931;-58
2021/12/28 11:03:12;;;;;;;;;;;22.30;43.80;;;;;;5117327;28;19923;-50
2021/12/28 11:05:40;;;;;;;;;;;22.30;43.80;;;;;;5117213;28;19945;-51
2021/12/28 11:08:08;;;;;;;;;;;22.30;43.80;;;;;;5099131;28;20018;-58
2021/12/28 11:10:39;;;;;;;;;;;22.30;43.80;;;;;;5116022;28;19930;-50
2021/12/28 11:13:06;;;;;;;;;;;22.30;43.80;;;;;;5117169;28;19930;-56
2021/12/28 11:15:37;;;;;;;;;;;22.30;43.80;;;;;;5117077;28;19924;-56
2021/12/28 11:18:17;;;;;;;;;;;22.30;43.80;;;;;;5117073;28;19927;-52
2021/12/28 11:20:44;;;;;;;;;;;22.30;43.80;;;;;;5117352;28;19923;-48
2021/12/28 11:23:13;;;;;;;;;;;22.30;43.80;;;;;;5116598;28;19924;-52
2021/12/28 11:25:40;;;;;;;;;;;22.30;43.80;;;;;;5115767;27;19923;-52
2021/12/28 11:28:12;;;;;;;;;;;22.30;43.80;;;;;;5117137;28;20305;-53
2021/12/28 11:30:40;;;;;;;;;;;22.30;43.80;;;;;;5117116;28;20279;-52
2021/12/28 11:33:08;;;;;;;;;;;22.30;43.80;;;;;;5116780;28;19927;-56
2021/12/28 11:35:36;;;;;;;;;;;22.30;43.80;;;;;;5116720;28;19931;-53
2021/12/28 11:38:03;;;;;;;;;;;22.40;43.80;;;;;;5116667;28;19923;-50
2021/12/28 11:40:30;;;;;;;;;;;22.40;43.80;;;;;;5115344;28;19924;-56
2021/12/28 11:42:58;;;;;;;;;;;22.40;43.80;;;;;;5116540;28;19928;-56
2021/12/28 11:45:25;;;;;;;;;;;22.40;43.80;;;;;;5116541;28;20387;-50
2021/12/28 11:47:52;;;;;;;;;;;22.40;43.80;;;;;;5097081;28;19924;-53
2021/12/28 11:50:19;;;;;;;;;;;22.40;43.80;;;;;;5116412;28;19930;-53
2021/12/28 11:52:46;;;;;;;;;;;22.40;44.30;;;;;;5116538;28;19947;-51
2021/12/28 11:55:13;;;;;;;;;;;22.40;43.70;;;;;;5114984;28;20004;-54
2021/12/28 11:57:49;;;;;;;;;;;22.40;43.60;;;;;;5116587;28;19982;-59
2021/12/28 12:00:17;;;;;;;;;;;22.50;43.70;;;;;;5116623;28;19963;-56
2021/12/28 12:02:47;;;;;;;;;;;22.50;43.70;;;;;;5116195;28;19924;-58
2021/12/28 12:05:15;;;;;;;;;;;22.50;43.60;;;;;;5116489;28;19931;-49
2021/12/28 12:07:43;;;;;;;;;;;22.50;43.60;;;;;;5116016;28;19923;-52
2021/12/28 12:10:18;;;;;;;;;;;22.50;43.60;;;;;;5115156;28;19930;-49
2021/12/28 12:12:48;;;;;;;;;;;22.50;43.60;;;;;;5115975;28;19924;-52
2021/12/28 12:15:16;;;;;;;;;;;22.50;43.60;;;;;;5116245;28;20299;-53
2021/12/28 12:17:44;;;;;;;;;;;22.50;43.60;;;;;;5116184;28;19924;-49
2021/12/28 12:20:20;;;;;;;;;;;22.50;43.60;;;;;;5115817;28;19923;-53
2021/12/28 12:22:49;;;;;;;;;;;22.50;43.60;;;;;;5115427;28;19930;-54
2021/12/28 12:25:18;;;;;;;;;;;22.50;43.60;;;;;;5114522;27;19969;-54
2021/12/28 12:27:53;;;;;;;;;;;22.50;43.60;;;;;;5115632;28;19931;-59
2021/12/28 12:30:20;;;;;;;;;;;22.60;43.60;;;;;;5115609;28;19924;-49
2021/12/28 12:32:56;;;;;;;;;;;22.60;43.60;;;;;;5115907;28;19935;-57
2021/12/28 12:35:30;;;;;;;;;;;22.60;44.20;;;;;;5115834;28;19923;-59
2021/12/28 12:37:58;;;;;;;;;;;22.60;43.50;;;;;;5115799;28;20314;-58
2021/12/28 12:40:43;;;;;;;;;;;22.60;43.50;;;;;;5114600;28;19923;-56
2021/12/28 12:43:14;;;;;;;;;;;22.60;43.50;;;;;;5097676;28;19923;-55
2021/12/28 12:45:54;;;;;;;;;;;22.60;43.50;;;;;;5115314;28;19930;-58
2021/12/28 12:48:37;;;;;;;;;;;22.70;43.60;;;;;;5115201;28;19924;-53
2021/12/28 12:51:19;;;;;;;;;;;22.70;43.50;;;;;;5115218;28;19927;-49
2021/12/28 12:53:46;;;;;;;;;;;22.70;43.50;;;;;;5115205;28;19932;-56
2021/12/28 12:56:18;;;;;;;;;;;22.70;43.50;;;;;;5114100;28;19924;-53
2021/12/28 12:58:46;;;;;;;;;;;22.70;43.50;;;;;;5114968;28;19923;-54
2021/12/28 13:01:36;;;;;;;;;;;22.70;43.50;;;;;;5115369;28;19924;-50
2021/12/28 13:04:23;;;;;;;;;;;22.70;43.50;;;;;;5100018;28;19924;-51
2021/12/28 13:06:59;;;;;;;;;;;22.70;43.50;;;;;;5114762;28;19923;-57
2021/12/28 13:09:28;;;;;;;;;;;22.70;43.50;;;;;;5115222;28;20010;-52
2021/12/28 13:11:58;;;;;;;;;;;22.70;43.60;;;;;;5113661;28;19923;-56
2021/12/28 13:14:25;;;;;;;;;;;22.70;43.50;;;;;;5115151;28;19927;-58
2021/12/28 13:16:55;;;;;;;;;;;22.70;43.60;;;;;;5115120;28;20321;-57
2021/12/28 13:19:22;;;;;;;;;;;22.70;43.60;;;;;;5115054;28;19931;-58
2021/12/28 13:21:55;;;;;;;;;;;22.60;43.50;;;;;;5114707;28;19924;-56
2021/12/28 13:24:22;;;;;;;;;;;22.70;43.60;;;;;;5113713;28;19931;-55
2021/12/28 13:26:52;;;;;;;;;;;22.70;43.60;;;;;;5112881;28;19924;-49
2021/12/28 13:29:25;;;;;;;;;;;22.70;43.60;;;;;;5113738;28;20383;-53
2021/12/28 13:31:53;;;;;;;;;;;22.70;43.60;;;;;;5113718;28;20366;-50
2021/12/28 13:34:20;;;;;;;;;;;22.70;43.60;;;;;;5096024;28;19923;-54
2021/12/28 13:36:52;;;;;;;;;;;22.70;43.70;;;;;;5113985;28;20284;-53
2021/12/28 13:39:19;;;;;;;;;;;22.70;43.70;;;;;;5113591;28;20007;-52
2021/12/28 13:41:51;;;;;;;;;;;22.70;43.70;;;;;;5112175;28;19927;-52
2021/12/28 13:44:18;;;;;;;;;;;22.70;43.70;;;;;;5113554;28;19927;-54
2021/12/28 13:46:45;;;;;;;;;;;22.70;43.80;;;;;;5113542;28;19924;-56
2021/12/28 13:49:16;;;;;;;;;;;22.70;43.80;;;;;;5095787;28;19924;-57
2021/12/28 13:51:43;;;;;;;;;;;22.70;43.80;;;;;;5114081;28;19974;-55
2021/12/28 13:54:10;;;;;;;;;;;22.70;43.80;;;;;;5113173;28;19997;-56
2021/12/28 13:56:40;;;;;;;;;;;22.70;43.80;;;;;;5112225;28;19928;-57
2021/12/28 13:59:09;;;;;;;;;;;22.70;43.80;;;;;;5113319;28;19935;-55
2021/12/28 14:01:43;;;;;;;;;;;22.70;43.80;;;;;;5113354;28;19923;-56
2021/12/28 14:04:11;;;;;;;;;;;22.70;43.80;;;;;;5113651;28;20303;-55
2021/12/28 14:06:41;;;;;;;;;;;22.70;43.80;;;;;;5113604;28;19923;-58
2021/12/28 14:09:09;;;;;;;;;;;22.70;43.70;;;;;;5113161;28;19927;-56
2021/12/28 14:11:43;;;;;;;;;;;22.70;43.70;;;;;;5115001;28;19953;-56
2021/12/28 14:14:19;;;;;;;;;;;22.70;43.70;;;;;;5116904;28;19923;-53
2021/12/28 14:16:50;;;;;;;;;;;22.70;43.70;;;;;;5116833;28;19927;-57
2021/12/28 14:19:17;;;;;;;;;;;22.70;43.70;;;;;;5116802;28;20022;-56
2021/12/28 14:21:46;;;;;;;;;;;22.70;43.70;;;;;;5117080;28;19924;-52
2021/12/28 14:24:13;;;;;;;;;;;22.70;43.80;;;;;;5023773;28;2636915;-53
2021/12/28 14:26:46;;;;;;;;;;;22.70;43.80;;;;;;5103995;27;19976;-58
2021/12/28 14:29:24;;;;;;;;;;;22.70;43.80;;;;;;5138828;27;19928;-55